Time;durP1;ratioP1;P1;durP2;ratioP2;P2;SDS_P1;SDS_P2;PMS_P1;PMS_P2;Temp;Humidity;BMP_temperature;BMP_pressure;BME280_temperature;BME280_humidity;BME280_pressure;Samples;Min_cycle;Max_cycle;Signal;HPM_P1;HPM_P2
2022/04/11 00:01:47;;;;;;;;;;;3.00;99.90;;;;;;5156419;27;19923;-71
2022/04/11 00:04:12;;;;;;;;;;;3.00;99.90;;;;;;5156102;27;20331;-71
2022/04/11 00:06:38;;;;;;;;;;;4.70;99.90;;;;;;5137269;27;19923;-70
2022/04/11 00:09:04;;;;;;;;;;;3.10;99.90;;;;;;5156212;27;19923;-71
2022/04/11 00:11:29;;;;;;;;;;;3.00;99.90;;;;;;5155587;27;19923;-70
2022/04/11 00:13:55;;;;;;;;;;;3.30;99.90;;;;;;5137515;27;19923;-73
2022/04/11 00:16:20;;;;;;;;;;;3.60;99.90;;;;;;5172538;27;20285;-71
2022/04/11 00:18:46;;;;;;;;;;;3.80;99.90;;;;;;5155869;27;19970;-73
2022/04/11 00:21:11;;;;;;;;;;;3.30;99.90;;;;;;5156017;27;19924;-69
2022/04/11 00:23:37;;;;;;;;;;;2.70;99.90;;;;;;5155901;27;19923;-71
2022/04/11 00:26:02;;;;;;;;;;;3.90;99.90;;;;;;5156182;27;20267;-69
2022/04/11 00:28:28;;;;;;;;;;;2.70;99.90;;;;;;5155549;27;19927;-70
2022/04/11 00:30:53;;;;;;;;;;;2.70;99.90;;;;;;5154979;27;19972;-71
2022/04/11 00:33:19;;;;;;;;;;;3.60;99.90;;;;;;5137258;27;19923;-73
2022/04/11 00:35:46;;;;;;;;;;;2.70;99.90;;;;;;5155599;27;19930;-71
2022/04/11 00:38:12;;;;;;;;;;;2.60;99.90;;;;;;5155761;27;19978;-70
2022/04/11 00:40:37;;;;;;;;;;;4.20;99.90;;;;;;5172248;27;19923;-70
2022/04/11 00:43:03;;;;;;;;;;;3.70;99.90;;;;;;5155747;27;20017;-70
2022/04/11 00:45:29;;;;;;;;;;;2.40;99.90;;;;;;5155580;27;19949;-70
2022/04/11 00:47:55;;;;;;;;;;;2.30;99.90;;;;;;5155402;27;19923;-70
2022/04/11 00:50:21;;;;;;;;;;;3.20;99.90;;;;;;5155483;27;20434;-73
2022/04/11 00:52:52;;;;;;;;;;;0.70;99.90;;;;;;5155610;27;20290;-71
2022/04/11 00:55:19;;;;;;;;;;;2.20;99.90;;;;;;5155609;27;19976;-70
2022/04/11 00:57:45;;;;;;;;;;;2.50;99.90;;;;;;5155486;27;20334;-72
2022/04/11 01:00:13;;;;;;;;;;;2.80;99.90;;;;;;5155369;27;19923;-72
2022/04/11 01:02:38;;;;;;;;;;;2.30;99.90;;;;;;5136428;27;19934;-71
2022/04/11 01:05:08;;;;;;;;;;;2.30;99.90;;;;;;5136838;27;19923;-72
2022/04/11 01:07:34;;;;;;;;;;;2.30;99.90;;;;;;5155357;27;20018;-71
2022/04/11 01:10:00;;;;;;;;;;;3.30;99.90;;;;;;5155347;27;19967;-71
2022/04/11 01:12:26;;;;;;;;;;;3.00;99.90;;;;;;5155340;27;19927;-71
2022/04/11 01:14:51;;;;;;;;;;;2.20;99.90;;;;;;5155307;27;19923;-72
2022/04/11 01:17:17;;;;;;;;;;;2.30;99.90;;;;;;5155329;27;20328;-71
2022/04/11 01:19:42;;;;;;;;;;;2.90;99.90;;;;;;5136698;27;19923;-71
2022/04/11 01:22:08;;;;;;;;;;;3.40;99.90;;;;;;5155238;27;19978;-69
2022/04/11 01:24:36;;;;;;;;;;;3.00;99.90;;;;;;5158514;27;19931;-71
2022/04/11 01:27:01;;;;;;;;;;;2.20;99.90;;;;;;5159419;27;19930;-69
2022/04/11 01:29:27;;;;;;;;;;;2.30;99.90;;;;;;5159275;27;19923;-69
2022/04/11 01:31:53;;;;;;;;;;;4.20;99.90;;;;;;5159255;27;19973;-71
2022/04/11 01:34:18;;;;;;;;;;;3.70;99.90;;;;;;5159162;27;20377;-71
2022/04/11 01:36:44;;;;;;;;;;;2.30;99.90;;;;;;5159061;27;19945;-71
2022/04/11 01:39:09;;;;;;;;;;;3.10;99.90;;;;;;5159245;27;19930;-71
2022/04/11 01:41:35;;;;;;;;;;;3.80;99.90;;;;;;5159073;27;19930;-70
2022/04/11 01:44:00;;;;;;;;;;;3.70;99.90;;;;;;5159153;27;19926;-69
2022/04/11 01:46:26;;;;;;;;;;;2.90;99.90;;;;;;5159022;27;20380;-70
2022/04/11 01:48:51;;;;;;;;;;;3.10;99.90;;;;;;5158866;27;20373;-71
2022/04/11 01:51:18;;;;;;;;;;;2.70;99.90;;;;;;5158794;27;20001;-70
2022/04/11 01:53:43;;;;;;;;;;;2.20;99.90;;;;;;5140621;27;19926;-70
2022/04/11 01:56:09;;;;;;;;;;;2.30;99.90;;;;;;5159012;27;19923;-70
2022/04/11 01:58:34;;;;;;;;;;;3.70;99.90;;;;;;5158782;27;20374;-72
2022/04/11 02:01:00;;;;;;;;;;;2.80;99.90;;;;;;5158810;27;20025;-71
2022/04/11 02:03:26;;;;;;;;;;;2.20;99.90;;;;;;5158683;27;19923;-71
2022/04/11 02:05:52;;;;;;;;;;;1.40;99.90;;;;;;5158388;27;20017;-70
2022/04/11 02:08:17;;;;;;;;;;;4.20;99.90;;;;;;5158573;27;20044;-71
2022/04/11 02:10:43;;;;;;;;;;;2.20;99.90;;;;;;5175182;27;19958;-71
2022/04/11 02:13:08;;;;;;;;;;;3.80;99.90;;;;;;5174731;27;19927;-70
2022/04/11 02:15:34;;;;;;;;;;;2.60;99.90;;;;;;5158463;27;19923;-71
2022/04/11 02:18:00;;;;;;;;;;;2.80;99.90;;;;;;5140227;27;19923;-71
2022/04/11 02:20:26;;;;;;;;;;;4.10;99.90;;;;;;5158325;27;19924;-73
2022/04/11 02:22:53;;;;;;;;;;;2.10;99.90;;;;;;5158305;27;20293;-72
2022/04/11 02:25:19;;;;;;;;;;;2.10;99.90;;;;;;5158315;27;19930;-73
2022/04/11 02:27:48;;;;;;;;;;;2.10;99.90;;;;;;5157501;27;20142;-70
2022/04/11 02:30:15;;;;;;;;;;;3.30;99.90;;;;;;5158087;27;19929;-73
2022/04/11 02:32:41;;;;;;;;;;;2.50;99.90;;;;;;5158072;27;19931;-71
2022/04/11 02:35:07;;;;;;;;;;;2.30;99.90;;;;;;5157166;27;19923;-71
2022/04/11 02:37:33;;;;;;;;;;;2.10;99.90;;;;;;5139557;27;20022;-72
2022/04/11 02:39:59;;;;;;;;;;;2.80;99.90;;;;;;5158000;27;19969;-72
2022/04/11 02:42:25;;;;;;;;;;;2.10;99.90;;;;;;5157756;27;19967;-73
2022/04/11 02:44:51;;;;;;;;;;;2.10;99.90;;;;;;5157911;27;20293;-71
2022/04/11 02:47:17;;;;;;;;;;;3.20;99.90;;;;;;5157793;27;19923;-71
2022/04/11 02:49:43;;;;;;;;;;;3.30;99.90;;;;;;5138931;27;19930;-72
2022/04/11 02:52:09;;;;;;;;;;;2.80;99.90;;;;;;5174149;27;19950;-70
2022/04/11 02:54:35;;;;;;;;;;;2.00;99.90;;;;;;5139444;27;19923;-71
2022/04/11 02:57:01;;;;;;;;;;;3.50;99.90;;;;;;5157774;27;20067;-70
2022/04/11 02:59:26;;;;;;;;;;;0.20;99.90;;;;;;5157670;27;20361;-73
2022/04/11 03:01:52;;;;;;;;;;;2.00;99.90;;;;;;5157588;27;19923;-70
2022/04/11 03:04:18;;;;;;;;;;;3.60;99.90;;;;;;5157417;27;19930;-71
2022/04/11 03:06:43;;;;;;;;;;;2.60;99.90;;;;;;5157369;27;19927;-70
2022/04/11 03:09:09;;;;;;;;;;;2.00;99.90;;;;;;5157111;27;19927;-71
2022/04/11 03:11:34;;;;;;;;;;;1.90;99.90;;;;;;5173926;27;19930;-69
2022/04/11 03:14:00;;;;;;;;;;;1.80;99.90;;;;;;5157371;27;20022;-70
2022/04/11 03:16:26;;;;;;;;;;;3.50;99.90;;;;;;5157168;27;20281;-71
2022/04/11 03:18:51;;;;;;;;;;;3.10;99.90;;;;;;5157318;27;19930;-73
2022/04/11 03:21:17;;;;;;;;;;;3.00;99.90;;;;;;5173593;27;20320;-71
2022/04/11 03:23:43;;;;;;;;;;;1.70;99.90;;;;;;5157021;27;19931;-71
2022/04/11 03:26:08;;;;;;;;;;;1.80;99.90;;;;;;5138607;27;20047;-71
2022/04/11 03:28:34;;;;;;;;;;;3.50;99.90;;;;;;5138645;27;19926;-70
2022/04/11 03:30:59;;;;;;;;;;;1.80;99.90;;;;;;5157059;27;19980;-70
2022/04/11 03:33:25;;;;;;;;;;;2.20;99.90;;;;;;5156944;27;19930;-70
2022/04/11 03:35:51;;;;;;;;;;;0.00;99.90;;;;;;5138585;27;19923;-70
2022/04/11 03:38:16;;;;;;;;;;;1.80;99.90;;;;;;5156547;27;19923;-71
2022/04/11 03:40:42;;;;;;;;;;;1.80;99.90;;;;;;5156883;27;19924;-71
2022/04/11 03:43:07;;;;;;;;;;;1.70;99.90;;;;;;5156885;27;20378;-71
2022/04/11 03:45:33;;;;;;;;;;;3.10;99.90;;;;;;5156483;27;19946;-70
2022/04/11 03:47:58;;;;;;;;;;;2.00;99.90;;;;;;5155516;27;19978;-71
2022/04/11 03:50:24;;;;;;;;;;;1.70;99.90;;;;;;5156616;27;19983;-73
2022/04/11 03:52:50;;;;;;;;;;;1.70;99.90;;;;;;5172752;27;19927;-71
2022/04/11 03:55:15;;;;;;;;;;;1.70;99.90;;;;;;5156415;27;19923;-72
2022/04/11 03:57:41;;;;;;;;;;;1.70;99.90;;;;;;5156572;27;19926;-71
2022/04/11 04:00:07;;;;;;;;;;;1.70;99.90;;;;;;5156497;27;20385;-72
2022/04/11 04:02:33;;;;;;;;;;;1.70;99.90;;;;;;5137849;27;20294;-71
2022/04/11 04:04:58;;;;;;;;;;;1.70;99.90;;;;;;5172670;27;19927;-70
2022/04/11 04:07:24;;;;;;;;;;;1.60;99.90;;;;;;5156174;27;19923;-72
2022/04/11 04:09:49;;;;;;;;;;;2.20;99.90;;;;;;5137474;27;20014;-72
2022/04/11 04:12:19;;;;;;;;;;;1.70;99.90;;;;;;5156038;27;19923;-72
2022/04/11 04:14:45;;;;;;;;;;;1.70;99.90;;;;;;5172702;27;19923;-71
2022/04/11 04:17:11;;;;;;;;;;;2.70;99.90;;;;;;5156149;27;19930;-70
2022/04/11 04:19:37;;;;;;;;;;;1.90;99.90;;;;;;5156053;27;20275;-69
2022/04/11 04:22:02;;;;;;;;;;;2.20;99.90;;;;;;5156057;27;19927;-71
2022/04/11 04:24:28;;;;;;;;;;;1.80;99.90;;;;;;5155573;27;19927;-73
2022/04/11 04:26:54;;;;;;;;;;;2.90;99.90;;;;;;5120636;27;20350;-73
2022/04/11 04:29:20;;;;;;;;;;;0.30;99.90;;;;;;5155836;27;19923;-72
2022/04/11 04:31:47;;;;;;;;;;;2.70;99.90;;;;;;5155911;27;19923;-72
2022/04/11 04:34:13;;;;;;;;;;;1.80;99.90;;;;;;5155797;27;19924;-70
2022/04/11 04:36:39;;;;;;;;;;;2.50;99.90;;;;;;5155879;27;19927;-70
2022/04/11 04:39:04;;;;;;;;;;;3.00;99.90;;;;;;5154715;27;19923;-71
2022/04/11 04:41:30;;;;;;;;;;;1.90;99.90;;;;;;5137260;27;19923;-72
2022/04/11 04:43:55;;;;;;;;;;;2.00;99.90;;;;;;5155774;27;20270;-71
2022/04/11 04:46:21;;;;;;;;;;;3.00;99.90;;;;;;5172191;27;20366;-70
2022/04/11 04:48:47;;;;;;;;;;;2.00;99.90;;;;;;5155528;27;20026;-70
2022/04/11 04:51:12;;;;;;;;;;;2.00;99.90;;;;;;5155523;27;19968;-71
2022/04/11 04:53:38;;;;;;;;;;;2.00;99.90;;;;;;5155394;27;20001;-71
2022/04/11 04:56:04;;;;;;;;;;;2.00;99.90;;;;;;5171903;27;20346;-69
2022/04/11 04:58:29;;;;;;;;;;;2.00;99.90;;;;;;5155286;27;20362;-72
2022/04/11 05:00:55;;;;;;;;;;;2.00;99.90;;;;;;5155492;27;20477;-69
2022/04/11 05:03:20;;;;;;;;;;;2.90;99.90;;;;;;5155425;27;19985;-71
2022/04/11 05:05:46;;;;;;;;;;;2.70;99.90;;;;;;5155374;27;20018;-71
2022/04/11 05:08:11;;;;;;;;;;;0.40;99.90;;;;;;5154228;27;19930;-71
2022/04/11 05:10:37;;;;;;;;;;;2.10;99.90;;;;;;5155260;27;20286;-71
2022/04/11 05:13:03;;;;;;;;;;;2.10;99.90;;;;;;5137039;27;20296;-71
2022/04/11 05:15:29;;;;;;;;;;;3.40;99.90;;;;;;5171542;27;19971;-69
2022/04/11 05:17:55;;;;;;;;;;;2.20;99.90;;;;;;5155319;27;20393;-71
2022/04/11 05:20:20;;;;;;;;;;;2.10;99.90;;;;;;5137024;27;20405;-71
2022/04/11 05:22:46;;;;;;;;;;;1.60;99.90;;;;;;5154926;27;20003;-71
2022/04/11 05:25:12;;;;;;;;;;;2.20;99.90;;;;;;5155149;27;20051;-70
2022/04/11 05:27:37;;;;;;;;;;;2.20;99.90;;;;;;5154910;27;20059;-71
2022/04/11 05:30:05;;;;;;;;;;;1.50;99.90;;;;;;5155186;27;20412;-68
2022/04/11 05:32:32;;;;;;;;;;;2.30;99.90;;;;;;5137142;27;20015;-70
2022/04/11 05:34:57;;;;;;;;;;;2.30;99.90;;;;;;5155171;27;19923;-70
2022/04/11 05:37:23;;;;;;;;;;;0.90;99.90;;;;;;5155062;27;19923;-70
2022/04/11 05:39:48;;;;;;;;;;;3.80;99.90;;;;;;5154875;27;19927;-69
2022/04/11 05:42:14;;;;;;;;;;;2.30;99.90;;;;;;5154835;27;19930;-70
2022/04/11 05:44:39;;;;;;;;;;;3.60;99.90;;;;;;5155184;27;19923;-70
2022/04/11 05:47:05;;;;;;;;;;;2.40;99.90;;;;;;5155077;27;19934;-72
2022/04/11 05:49:31;;;;;;;;;;;2.40;99.90;;;;;;5171243;27;19923;-69
2022/04/11 05:51:56;;;;;;;;;;;3.70;99.90;;;;;;5136825;27;20376;-71
2022/04/11 05:54:22;;;;;;;;;;;3.80;99.90;;;;;;5154868;27;19927;-73
2022/04/11 05:56:47;;;;;;;;;;;2.60;99.90;;;;;;5154637;27;19923;-72
2022/04/11 05:59:13;;;;;;;;;;;3.50;99.90;;;;;;5154762;27;19945;-71
2022/04/11 06:01:40;;;;;;;;;;;3.10;99.90;;;;;;5155003;27;19927;-70
2022/04/11 06:04:06;;;;;;;;;;;2.80;99.90;;;;;;5136463;27;20046;-71
2022/04/11 06:06:31;;;;;;;;;;;2.70;99.90;;;;;;5154655;27;20036;-70
2022/04/11 06:08:57;;;;;;;;;;;3.20;99.90;;;;;;5136015;27;19922;-69
2022/04/11 06:11:22;;;;;;;;;;;3.80;99.90;;;;;;5157268;27;20334;-71
2022/04/11 06:13:48;;;;;;;;;;;2.90;99.90;;;;;;5158402;27;19966;-72
2022/04/11 06:16:14;;;;;;;;;;;2.90;99.90;;;;;;5158652;27;19929;-70
2022/04/11 06:18:40;;;;;;;;;;;3.00;99.90;;;;;;5174923;27;19923;-69
2022/04/11 06:21:05;;;;;;;;;;;4.20;99.90;;;;;;5134524;27;19932;-71
2022/04/11 06:23:31;;;;;;;;;;;3.10;99.90;;;;;;5146696;27;19923;-69
2022/04/11 06:25:57;;;;;;;;;;;3.10;99.90;;;;;;5158209;27;19929;-71
2022/04/11 06:28:22;;;;;;;;;;;3.20;99.90;;;;;;5156953;27;19927;-74
2022/04/11 06:30:48;;;;;;;;;;;3.90;99.90;;;;;;5122529;27;19933;-72
2022/04/11 06:33:13;;;;;;;;;;;3.30;99.90;;;;;;5157937;27;19930;-71
2022/04/11 06:35:39;;;;;;;;;;;3.30;99.90;;;;;;5158055;27;20397;-71
2022/04/11 06:38:05;;;;;;;;;;;3.30;99.90;;;;;;5157806;27;19923;-69
2022/04/11 06:40:30;;;;;;;;;;;3.40;99.90;;;;;;5157911;27;19930;-72
2022/04/11 06:42:56;;;;;;;;;;;5.20;99.90;;;;;;5157813;27;19923;-70
2022/04/11 06:45:21;;;;;;;;;;;3.50;99.90;;;;;;5157669;27;19930;-74
2022/04/11 06:47:48;;;;;;;;;;;3.60;99.90;;;;;;5157843;27;19927;-70
2022/04/11 06:50:14;;;;;;;;;;;3.60;99.90;;;;;;5157765;27;19923;-69
2022/04/11 06:52:49;;;;;;;;;;;3.70;99.90;;;;;;5157487;27;20040;-70
2022/04/11 06:55:15;;;;;;;;;;;3.70;99.90;;;;;;5139136;27;20029;-69
2022/04/11 06:57:41;;;;;;;;;;;4.10;99.90;;;;;;5157446;27;19962;-70
2022/04/11 07:00:07;;;;;;;;;;;3.90;99.90;;;;;;5157386;27;20282;-70
2022/04/11 07:02:32;;;;;;;;;;;3.80;99.90;;;;;;5122213;27;19923;-71
2022/04/11 07:04:58;;;;;;;;;;;3.90;99.90;;;;;;5157491;27;19926;-70
2022/04/11 07:07:23;;;;;;;;;;;4.40;99.90;;;;;;5157389;27;19927;-72
2022/04/11 07:09:49;;;;;;;;;;;3.90;99.90;;;;;;5157207;27;20277;-71
2022/04/11 07:12:14;;;;;;;;;;;5.20;99.90;;;;;;5157232;27;19996;-71
2022/04/11 07:14:40;;;;;;;;;;;5.50;99.90;;;;;;5157235;27;19946;-71
2022/04/11 07:17:05;;;;;;;;;;;5.20;99.90;;;;;;5157309;27;19927;-71
2022/04/11 07:19:31;;;;;;;;;;;4.10;99.90;;;;;;5157273;27;19923;-72
2022/04/11 07:21:57;;;;;;;;;;;4.20;99.90;;;;;;5156695;27;19923;-73
2022/04/11 07:24:23;;;;;;;;;;;4.30;99.90;;;;;;5138229;27;19930;-70
2022/04/11 07:26:49;;;;;;;;;;;4.30;99.90;;;;;;5156708;27;20412;-72
2022/04/11 07:29:15;;;;;;;;;;;4.40;99.90;;;;;;5137835;27;19923;-70
2022/04/11 07:31:41;;;;;;;;;;;4.40;99.90;;;;;;5139063;27;19923;-69
2022/04/11 07:34:07;;;;;;;;;;;4.50;99.90;;;;;;5138400;27;19930;-72
2022/04/11 07:36:33;;;;;;;;;;;4.90;99.90;;;;;;5156829;27;19946;-70
2022/04/11 07:38:58;;;;;;;;;;;4.60;99.90;;;;;;5156730;27;20365;-70
2022/04/11 07:41:24;;;;;;;;;;;4.70;99.90;;;;;;5156773;27;20324;-70
2022/04/11 07:43:51;;;;;;;;;;;4.80;99.90;;;;;;5156688;27;19927;-71
2022/04/11 07:46:16;;;;;;;;;;;5.50;99.90;;;;;;5156486;27;19923;-69
2022/04/11 07:48:42;;;;;;;;;;;4.90;99.90;;;;;;5173025;27;20019;-72
2022/04/11 07:51:07;;;;;;;;;;;5.80;99.90;;;;;;5156606;27;19930;-70
2022/04/11 07:53:33;;;;;;;;;;;6.30;99.90;;;;;;5156444;27;19923;-70
2022/04/11 07:55:59;;;;;;;;;;;5.20;99.90;;;;;;5156478;27;19972;-70
2022/04/11 07:58:24;;;;;;;;;;;5.20;99.90;;;;;;5172690;27;20400;-70
2022/04/11 08:00:53;;;;;;;;;;;5.70;99.90;;;;;;5156157;27;19923;-73
2022/04/11 08:03:19;;;;;;;;;;;5.40;99.90;;;;;;5156383;27;20404;-71
2022/04/11 08:05:45;;;;;;;;;;;5.50;99.90;;;;;;5156289;27;20334;-72
2022/04/11 08:08:10;;;;;;;;;;;5.50;99.90;;;;;;5156017;27;19923;-71
2022/04/11 08:10:36;;;;;;;;;;;5.70;99.90;;;;;;5156051;27;19999;-71
2022/04/11 08:13:02;;;;;;;;;;;5.70;99.90;;;;;;5156143;27;19923;-73
2022/04/11 08:15:28;;;;;;;;;;;5.90;99.90;;;;;;5156008;27;19923;-71
2022/04/11 08:17:55;;;;;;;;;;;5.90;99.90;;;;;;5155930;27;20327;-70
2022/04/11 08:20:21;;;;;;;;;;;6.00;99.90;;;;;;5156075;27;20025;-73
2022/04/11 08:22:46;;;;;;;;;;;6.10;99.90;;;;;;5155951;27;19923;-71
2022/04/11 08:25:12;;;;;;;;;;;6.20;99.90;;;;;;5155818;27;19931;-69
2022/04/11 08:27:39;;;;;;;;;;;6.50;99.90;;;;;;5154972;27;20327;-72
2022/04/11 08:30:07;;;;;;;;;;;6.40;99.90;;;;;;5137423;27;19963;-71
2022/04/11 08:32:42;;;;;;;;;;;6.40;99.90;;;;;;5154981;27;19933;-72
2022/04/11 08:35:09;;;;;;;;;;;6.50;99.90;;;;;;5155689;27;19934;-72
2022/04/11 08:37:40;;;;;;;;;;;6.60;99.90;;;;;;5155555;27;19929;-71
2022/04/11 08:40:07;;;;;;;;;;;6.70;99.90;;;;;;5155459;27;20014;-72
2022/04/11 08:42:34;;;;;;;;;;;6.80;99.90;;;;;;5155329;27;20286;-70
2022/04/11 08:45:01;;;;;;;;;;;6.90;99.90;;;;;;5171405;27;19972;-70
2022/04/11 08:47:27;;;;;;;;;;;7.00;99.90;;;;;;5120258;27;19975;-71
2022/04/11 08:49:54;;;;;;;;;;;7.00;99.90;;;;;;5155336;27;19930;-71
2022/04/11 08:52:21;;;;;;;;;;;7.10;99.90;;;;;;5154976;27;19930;-73
2022/04/11 08:54:48;;;;;;;;;;;7.20;99.90;;;;;;5155226;27;20015;-70
2022/04/11 08:57:14;;;;;;;;;;;7.40;99.90;;;;;;5136506;27;19923;-71
2022/04/11 08:59:40;;;;;;;;;;;7.50;99.90;;;;;;5155157;27;20400;-73
2022/04/11 09:02:10;;;;;;;;;;;7.60;99.90;;;;;;5119716;27;19934;-71
2022/04/11 09:04:56;;;;;;;;;;;7.70;99.90;;;;;;5155085;27;19927;-72
2022/04/11 09:07:23;;;;;;;;;;;7.80;99.90;;;;;;5155200;27;19923;-72
2022/04/11 09:09:50;;;;;;;;;;;7.90;99.90;;;;;;5154760;27;19934;-72
2022/04/11 09:12:18;;;;;;;;;;;8.00;99.90;;;;;;5154966;27;19923;-71
2022/04/11 09:14:54;;;;;;;;;;;8.10;99.90;;;;;;5155244;27;19927;-72
2022/04/11 09:17:25;;;;;;;;;;;8.20;99.90;;;;;;5155096;27;20029;-71
2022/04/11 09:20:10;;;;;;;;;;;8.30;99.90;;;;;;5154870;27;20297;-71
2022/04/11 09:22:36;;;;;;;;;;;8.30;99.90;;;;;;5136568;27;19931;-71
2022/04/11 09:25:10;;;;;;;;;;;8.50;99.90;;;;;;5154696;27;20369;-71
2022/04/11 09:27:36;;;;;;;;;;;8.50;99.90;;;;;;5136707;27;20298;-71
2022/04/11 09:30:17;;;;;;;;;;;8.60;99.90;;;;;;5136439;27;20072;-71
2022/04/11 09:33:14;;;;;;;;;;;8.70;99.90;;;;;;5154876;27;19973;-71
2022/04/11 09:35:43;;;;;;;;;;;8.80;99.90;;;;;;5050735;28;20394;-71
2022/04/11 09:41:02;;;;;;;;;;;8.90;99.90;;;;;;5067414;28;20368;-71
2022/04/11 09:43:33;;;;;;;;;;;9.00;99.90;;;;;;5050837;28;19929;-71
2022/04/11 09:45:59;;;;;;;;;;;9.10;99.90;;;;;;5054248;28;19932;-70
2022/04/11 09:48:32;;;;;;;;;;;9.10;99.90;;;;;;5054549;28;19924;-70
2022/04/11 09:51:01;;;;;;;;;;;9.30;99.90;;;;;;5054395;28;20401;-72
2022/04/11 09:53:32;;;;;;;;;;;9.40;99.90;;;;;;5037992;28;19968;-72
2022/04/11 09:56:01;;;;;;;;;;;9.50;99.90;;;;;;5054428;28;20420;-73
2022/04/11 09:58:28;;;;;;;;;;;9.60;99.90;;;;;;5071101;28;20372;-71
2022/04/11 10:00:55;;;;;;;;;;;9.70;99.90;;;;;;5054482;28;19925;-72
2022/04/11 10:03:23;;;;;;;;;;;9.90;99.90;;;;;;5054245;28;19929;-71
2022/04/11 10:05:49;;;;;;;;;;;10.10;99.90;;;;;;5054109;28;19928;-73
2022/04/11 10:08:16;;;;;;;;;;;10.20;99.90;;;;;;5054155;28;20376;-73
2022/04/11 10:10:42;;;;;;;;;;;10.20;99.90;;;;;;5037610;28;20022;-71
2022/04/11 10:13:15;;;;;;;;;;;10.10;99.90;;;;;;5135888;27;19923;-72
2022/04/11 10:15:43;;;;;;;;;;;10.10;99.90;;;;;;5158023;27;19924;-72
2022/04/11 10:18:11;;;;;;;;;;;10.10;99.90;;;;;;5139537;27;19927;-72
2022/04/11 10:20:42;;;;;;;;;;;10.20;99.90;;;;;;5157982;27;20386;-72
2022/04/11 10:23:11;;;;;;;;;;;10.30;99.90;;;;;;5157703;27;19923;-72
2022/04/11 10:25:44;;;;;;;;;;;10.40;99.90;;;;;;5157372;27;19930;-75
2022/04/11 10:28:15;;;;;;;;;;;10.40;99.90;;;;;;5139303;27;19923;-74
2022/04/11 10:30:43;;;;;;;;;;;10.50;97.10;;;;;;5157729;27;19924;-72
2022/04/11 10:33:10;;;;;;;;;;;10.60;99.90;;;;;;5157579;27;20441;-71
2022/04/11 10:35:41;;;;;;;;;;;10.60;99.90;;;;;;5157593;27;20018;-71
2022/04/11 10:38:08;;;;;;;;;;;10.80;99.90;;;;;;5139415;27;19927;-73
2022/04/11 10:40:39;;;;;;;;;;;10.90;99.90;;;;;;5157340;27;19923;-71
2022/04/11 10:43:08;;;;;;;;;;;11.00;82.20;;;;;;5157667;27;19923;-71
2022/04/11 10:45:40;;;;;;;;;;;11.10;99.90;;;;;;5157702;27;19930;-72
2022/04/11 10:48:07;;;;;;;;;;;11.20;99.90;;;;;;5157476;27;19927;-71
2022/04/11 10:50:35;;;;;;;;;;;11.20;88.50;;;;;;5157469;27;20390;-72
2022/04/11 10:53:07;;;;;;;;;;;11.20;91.00;;;;;;5121810;27;19930;-71
2022/04/11 10:55:35;;;;;;;;;;;11.20;99.90;;;;;;5138275;27;19930;-71
2022/04/11 10:58:01;;;;;;;;;;;11.30;99.90;;;;;;5157012;27;19930;-72
2022/04/11 11:00:33;;;;;;;;;;;11.30;70.30;;;;;;5157227;27;19923;-71
2022/04/11 11:03:00;;;;;;;;;;;11.40;86.70;;;;;;5157360;27;19934;-71
2022/04/11 11:05:40;;;;;;;;;;;11.50;82.40;;;;;;5157348;27;19923;-71
2022/04/11 11:08:10;;;;;;;;;;;11.50;99.90;;;;;;5138718;27;19926;-72
2022/04/11 11:10:45;;;;;;;;;;;11.60;66.60;;;;;;5138582;27;20339;-72
2022/04/11 11:13:30;;;;;;;;;;;11.60;76.00;;;;;;5157211;27;19935;-73
2022/04/11 11:15:58;;;;;;;;;;;11.60;88.10;;;;;;5156873;27;19923;-73
2022/04/11 11:18:26;;;;;;;;;;;11.70;91.70;;;;;;5138351;27;19923;-71
2022/04/11 11:20:54;;;;;;;;;;;11.70;99.90;;;;;;5154920;27;19923;-71
2022/04/11 11:23:23;;;;;;;;;;;11.80;79.60;;;;;;5127866;27;19923;-71
2022/04/11 11:25:51;;;;;;;;;;;11.90;75.50;;;;;;5135987;27;20016;-72
2022/04/11 11:28:18;;;;;;;;;;;11.90;65.70;;;;;;5135471;27;20371;-75
2022/04/11 11:30:45;;;;;;;;;;;11.90;81.70;;;;;;5135695;27;19977;-74
2022/04/11 11:33:14;;;;;;;;;;;11.90;73.40;;;;;;5134467;27;19927;-72
2022/04/11 11:35:49;;;;;;;;;;;11.90;77.50;;;;;;5152468;27;19927;-73
2022/04/11 11:38:16;;;;;;;;;;;11.90;81.20;;;;;;5138602;27;19929;-71
2022/04/11 11:40:43;;;;;;;;;;;11.90;84.40;;;;;;5156258;27;20385;-72
2022/04/11 11:43:13;;;;;;;;;;;12.10;79.50;;;;;;5156593;27;19923;-73
2022/04/11 11:45:41;;;;;;;;;;;12.10;73.10;;;;;;5156526;27;19974;-71
2022/04/11 11:48:27;;;;;;;;;;;12.10;79.90;;;;;;5156759;27;19937;-72
2022/04/11 11:50:58;;;;;;;;;;;12.20;68.90;;;;;;5153463;27;19930;-75
2022/04/11 11:53:25;;;;;;;;;;;12.20;69.80;;;;;;5143234;27;19923;-72
2022/04/11 11:55:55;;;;;;;;;;;12.20;97.60;;;;;;5156360;27;19970;-71
2022/04/11 11:58:22;;;;;;;;;;;12.40;78.60;;;;;;5156510;27;19927;-74
2022/04/11 12:00:49;;;;;;;;;;;12.40;90.20;;;;;;5156265;27;19923;-72
2022/04/11 12:06:02;;;;;;;;;;;12.30;66.10;;;;;;5156200;27;19927;-70
2022/04/11 12:08:32;;;;;;;;;;;12.30;68.20;;;;;;5155040;27;19927;-72
2022/04/11 12:11:02;;;;;;;;;;;11.80;62.00;;;;;;5154429;27;20395;-72
2022/04/11 12:13:32;;;;;;;;;;;12.40;72.10;;;;;;5156270;27;19923;-72
2022/04/11 12:16:21;;;;;;;;;;;12.40;78.30;;;;;;5137538;27;19923;-72
2022/04/11 12:18:52;;;;;;;;;;;12.50;63.90;;;;;;5137420;27;19923;-73
2022/04/11 12:21:27;;;;;;;;;;;12.50;65.90;;;;;;5155659;27;19938;-72
2022/04/11 12:24:13;;;;;;;;;;;12.50;90.60;;;;;;5155488;27;20394;-70
2022/04/11 12:26:41;;;;;;;;;;;12.50;69.40;;;;;;5155652;27;19927;-72
2022/04/11 12:29:13;;;;;;;;;;;12.50;57.70;;;;;;5137269;27;19923;-73
2022/04/11 12:31:54;;;;;;;;;;;12.40;62.20;;;;;;5155564;27;19927;-74
2022/04/11 12:34:20;;;;;;;;;;;12.40;90.50;;;;;;5155596;27;20002;-72
2022/04/11 12:36:58;;;;;;;;;;;12.30;83.70;;;;;;5137661;27;19970;-71
2022/04/11 12:39:25;;;;;;;;;;;12.30;80.00;;;;;;5155635;27;20026;-71
2022/04/11 12:41:52;;;;;;;;;;;12.20;64.80;;;;;;5155389;27;19974;-71
2022/04/11 12:44:20;;;;;;;;;;;12.30;68.70;;;;;;5153994;27;20026;-72
2022/04/11 12:46:55;;;;;;;;;;;12.30;78.90;;;;;;5155751;27;19923;-74
2022/04/11 12:49:22;;;;;;;;;;;12.40;70.80;;;;;;5155420;27;19923;-75
2022/04/11 12:52:09;;;;;;;;;;;12.40;66.80;;;;;;5155729;27;19923;-74
2022/04/11 12:54:36;;;;;;;;;;;12.40;63.90;;;;;;5154763;27;20378;-72
2022/04/11 12:57:04;;;;;;;;;;;12.40;65.80;;;;;;5155049;27;19923;-72
2022/04/11 12:59:35;;;;;;;;;;;12.50;62.30;;;;;;5155207;27;19923;-71
2022/04/11 13:02:10;;;;;;;;;;;12.50;65.90;;;;;;5155210;27;19946;-70
2022/04/11 13:04:41;;;;;;;;;;;12.60;78.30;;;;;;5155194;27;20382;-72
2022/04/11 13:07:08;;;;;;;;;;;12.70;87.00;;;;;;5155172;27;19924;-71
2022/04/11 13:09:36;;;;;;;;;;;12.70;67.30;;;;;;5154787;27;19923;-71
2022/04/11 13:12:04;;;;;;;;;;;12.60;64.60;;;;;;5155409;27;20293;-71
2022/04/11 13:14:30;;;;;;;;;;;12.60;67.10;;;;;;5155310;27;19976;-71
2022/04/11 13:19:41;;;;;;;;;;;12.70;68.60;;;;;;5156702;27;19923;-72
2022/04/11 13:22:08;;;;;;;;;;;12.70;69.00;;;;;;5158607;27;19923;-71
2022/04/11 13:24:35;;;;;;;;;;;12.80;69.90;;;;;;5157973;27;19927;-72
2022/04/11 13:27:02;;;;;;;;;;;12.90;68.00;;;;;;5159090;27;19967;-72
2022/04/11 13:29:29;;;;;;;;;;;12.90;65.40;;;;;;5141012;27;19923;-72
2022/04/11 13:31:56;;;;;;;;;;;12.90;68.20;;;;;;5140722;27;20297;-72
2022/04/11 13:34:23;;;;;;;;;;;13.00;63.60;;;;;;5140948;27;20423;-72
2022/04/11 13:36:50;;;;;;;;;;;13.00;65.50;;;;;;5140496;27;20021;-72
2022/04/11 13:39:17;;;;;;;;;;;13.00;62.10;;;;;;5159238;27;19966;-71
2022/04/11 13:41:47;;;;;;;;;;;13.00;66.60;;;;;;5159275;27;19923;-71
2022/04/11 13:44:18;;;;;;;;;;;13.00;72.20;;;;;;5159068;27;19930;-72
2022/04/11 13:46:46;;;;;;;;;;;13.00;73.90;;;;;;5140801;27;19930;-72
2022/04/11 13:49:13;;;;;;;;;;;13.00;63.90;;;;;;5140567;27;19983;-73
2022/04/11 13:51:41;;;;;;;;;;;12.90;62.20;;;;;;5143324;27;19932;-74
2022/04/11 13:54:08;;;;;;;;;;;12.90;67.50;;;;;;5139792;27;19923;-71
2022/04/11 13:56:40;;;;;;;;;;;12.80;59.80;;;;;;5158738;27;19923;-71
2022/04/11 13:59:11;;;;;;;;;;;12.80;60.20;;;;;;5158640;27;19967;-72
2022/04/11 14:01:38;;;;;;;;;;;12.80;66.20;;;;;;5140330;27;20014;-71
2022/04/11 14:04:06;;;;;;;;;;;12.90;65.60;;;;;;5158648;27;19929;-73
2022/04/11 14:06:33;;;;;;;;;;;12.90;69.70;;;;;;5158455;27;19975;-73
2022/04/11 14:09:01;;;;;;;;;;;13.00;63.70;;;;;;5140397;27;19927;-72
2022/04/11 14:11:28;;;;;;;;;;;13.10;57.10;;;;;;5157969;27;20397;-73
2022/04/11 14:13:55;;;;;;;;;;;13.10;60.40;;;;;;5140051;27;19968;-72
2022/04/11 14:16:21;;;;;;;;;;;13.10;57.40;;;;;;5158361;27;19930;-72
2022/04/11 14:18:48;;;;;;;;;;;13.20;60.50;;;;;;5158261;27;19927;-73
2022/04/11 14:21:14;;;;;;;;;;;13.20;64.00;;;;;;5150169;27;19976;-73
2022/04/11 14:23:41;;;;;;;;;;;13.30;60.10;;;;;;5132011;27;19928;-74
2022/04/11 14:26:09;;;;;;;;;;;13.40;60.30;;;;;;5157494;27;19923;-73
2022/04/11 14:28:39;;;;;;;;;;;13.40;63.40;;;;;;5162939;27;20381;-72
2022/04/11 14:31:06;;;;;;;;;;;13.50;62.90;;;;;;5156988;27;19923;-72
2022/04/11 14:33:33;;;;;;;;;;;13.60;65.50;;;;;;5160796;27;20420;-72
2022/04/11 14:36:00;;;;;;;;;;;13.70;57.90;;;;;;5179135;27;20388;-74